Time;durP1;ratioP1;P1;durP2;ratioP2;P2;SDS_P1;SDS_P2;PMS_P1;PMS_P2;Temp;Humidity;BMP_temperature;BMP_pressure;BME280_temperature;BME280_humidity;BME280_pressure;Samples;Min_cycle;Max_cycle;Signal;HPM_P1;HPM_P2
2024/01/04 00:01:13;;;;;;;17.42;10.15;;;;;;;7.12;100.00;92447.44;5067567;28;20093;-72
2024/01/04 00:03:41;;;;;;;12.55;6.60;;;;;;;7.16;100.00;92457.00;5070271;28;20052;-72
2024/01/04 00:06:08;;;;;;;20.35;10.65;;;;;;;7.05;100.00;92444.91;5071051;28;20069;-72
2024/01/04 00:08:35;;;;;;;9.40;5.30;;;;;;;7.03;100.00;92445.09;5071034;28;20091;-72
2024/01/04 00:11:04;;;;;;;18.48;9.00;;;;;;;7.00;100.00;92435.31;5071967;28;20051;-72
2024/01/04 00:13:31;;;;;;;31.55;15.95;;;;;;;6.81;100.00;92417.34;5070214;28;20048;-72
2024/01/04 00:15:58;;;;;;;7.50;4.05;;;;;;;6.88;100.00;92419.88;5075236;28;20051;-72
2024/01/04 00:18:25;;;;;;;5.38;2.58;;;;;;;6.87;100.00;92425.19;5076658;28;20048;-72
2024/01/04 00:20:53;;;;;;;6.07;3.60;;;;;;;6.84;100.00;92405.94;5075164;28;20053;-72
2024/01/04 00:23:21;;;;;;;5.82;3.00;;;;;;;6.89;100.00;92415.56;5084191;28;20128;-72
2024/01/04 00:25:48;;;;;;;8.73;5.30;;;;;;;6.90;100.00;92415.34;5076606;28;20410;-72
2024/01/04 00:28:13;;;;;;;3.72;2.00;;;;;;;6.95;100.00;92407.06;5073095;28;20044;-72
2024/01/04 00:30:40;;;;;;;4.18;2.00;;;;;;;6.91;100.00;92401.56;5077599;28;20055;-72
2024/01/04 00:33:07;;;;;;;4.70;2.20;;;;;;;6.92;100.00;92390.41;5074107;28;20127;-72
2024/01/04 00:35:34;;;;;;;3.28;1.83;;;;;;;6.93;100.00;92379.19;5072281;28;20048;-72
2024/01/04 00:38:03;;;;;;;4.85;2.22;;;;;;;7.03;100.00;92383.81;5081104;28;20044;-72
2024/01/04 00:40:29;;;;;;;6.80;2.47;;;;;;;7.08;100.00;92383.19;5075513;28;20055;-72
2024/01/04 00:42:57;;;;;;;5.28;2.65;;;;;;;7.07;100.00;92392.66;5071862;28;20048;-72
2024/01/04 00:45:24;;;;;;;5.95;2.60;;;;;;;7.06;100.00;92391.09;5074110;28;20040;-72
2024/01/04 00:47:51;;;;;;;4.57;2.58;;;;;;;7.05;100.00;92389.50;5083790;28;20127;-72
2024/01/04 00:50:18;;;;;;;4.25;1.80;;;;;;;7.07;100.00;92396.97;5070941;28;20127;-72
2024/01/04 00:52:45;;;;;;;5.10;2.15;;;;;;;7.05;100.00;92398.94;5083835;28;20040;-72
2024/01/04 00:55:13;;;;;;;5.00;2.58;;;;;;;7.09;100.00;92411.09;5076755;28;20048;-71
2024/01/04 00:57:40;;;;;;;8.75;3.63;;;;;;;7.01;100.00;92397.78;5072751;28;20045;-72
2024/01/04 01:00:08;;;;;;;6.63;3.40;;;;;;;7.06;100.00;92403.06;5083707;28;20764;-72
2024/01/04 01:02:35;;;;;;;5.22;2.38;;;;;;;7.01;100.00;92403.69;5072481;28;20413;-72
2024/01/04 01:05:02;;;;;;;4.97;2.42;;;;;;;6.99;100.00;92403.09;5074574;28;20048;-72
2024/01/04 01:07:29;;;;;;;6.60;2.85;;;;;;;6.85;100.00;92384.53;5076699;28;20052;-72
2024/01/04 01:09:56;;;;;;;5.72;2.92;;;;;;;6.90;100.00;92387.25;5077363;28;20459;-72
2024/01/04 01:12:24;;;;;;;8.43;3.55;;;;;;;6.92;100.00;92385.28;5074723;28;20131;-72
2024/01/04 01:14:51;;;;;;;14.23;5.57;;;;;;;6.93;100.00;92391.16;5076988;28;20058;-72
2024/01/04 01:17:18;;;;;;;4.53;2.67;;;;;;;6.91;100.00;92393.16;5073990;28;20408;-72
2024/01/04 01:19:45;;;;;;;4.25;1.92;;;;;;;6.88;100.00;92389.25;5072280;28;20056;-72
2024/01/04 01:22:12;;;;;;;4.47;1.92;;;;;;;6.95;100.00;92395.06;5073218;28;20098;-72
2024/01/04 01:24:40;;;;;;;4.97;2.92;;;;;;;7.04;100.00;92397.38;5073155;28;20052;-72
2024/01/04 01:27:07;;;;;;;5.28;2.33;;;;;;;7.07;100.00;92397.75;5075393;28;20043;-72
2024/01/04 01:29:36;;;;;;;4.43;2.55;;;;;;;7.13;100.00;92380.03;5073167;28;20048;-72
2024/01/04 01:32:02;;;;;;;4.00;1.85;;;;;;;7.20;100.00;92407.09;5075481;28;20493;-72
2024/01/04 01:34:29;;;;;;;3.70;2.13;;;;;;;7.30;100.00;92388.72;5072311;28;20527;-72
2024/01/04 01:36:58;;;;;;;5.93;2.85;;;;;;;7.43;100.00;92397.25;5080467;28;20044;-72
2024/01/04 01:39:25;;;;;;;5.18;2.85;;;;;;;7.47;100.00;92396.66;5069410;28;20045;-72
2024/01/04 01:41:52;;;;;;;4.10;2.88;;;;;;;7.52;100.00;92396.00;5070982;28;20421;-72
2024/01/04 01:44:19;;;;;;;8.27;5.57;;;;;;;7.50;100.00;92387.75;5072404;28;20068;-72
2024/01/04 01:46:48;;;;;;;49.97;26.67;;;;;;;7.66;100.00;92413.78;5072667;28;20078;-72
2024/01/04 01:49:15;;;;;;;9.57;4.90;;;;;;;7.69;100.00;92395.47;5071797;28;20055;-72
2024/01/04 01:51:42;;;;;;;3.55;2.22;;;;;;;7.70;100.00;92402.94;5068974;28;20044;-72
2024/01/04 01:54:09;;;;;;;4.13;2.00;;;;;;;7.73;100.00;92406.84;5077191;28;20517;-72
2024/01/04 01:56:36;;;;;;;5.18;1.83;;;;;;;7.82;100.00;92415.00;5082381;28;20048;-72
2024/01/04 01:59:03;;;;;;;4.63;2.22;;;;;;;7.87;100.00;92410.81;5072240;28;20058;-72
2024/01/04 02:01:30;;;;;;;6.20;3.30;;;;;;;7.84;100.00;92401.03;5071274;28;20441;-72
2024/01/04 02:03:59;;;;;;;8.45;3.97;;;;;;;7.91;100.00;92403.50;5074203;28;20056;-72
2024/01/04 02:06:26;;;;;;;7.60;4.82;;;;;;;7.90;100.00;92404.50;5074088;28;20052;-72
2024/01/04 02:08:53;;;;;;;8.95;4.32;;;;;;;7.85;100.00;92410.25;5069375;28;20044;-72
2024/01/04 02:11:22;;;;;;;16.02;9.43;;;;;;;7.86;100.00;92405.91;5074565;28;20047;-72
2024/01/04 02:13:49;;;;;;;6.78;3.28;;;;;;;7.60;100.00;92407.75;5070936;28;20044;-72
2024/01/04 02:16:16;;;;;;;7.00;2.63;;;;;;;7.71;100.00;92408.81;5071488;28;20062;-72
2024/01/04 02:18:43;;;;;;;6.90;3.00;;;;;;;7.48;100.00;92390.53;5071430;28;20075;-72
2024/01/04 02:21:12;;;;;;;10.40;3.55;;;;;;;7.64;100.00;92405.53;5070849;28;20051;-72
2024/01/04 02:23:40;;;;;;;9.93;4.15;;;;;;;7.66;100.00;92406.09;5074157;28;20052;-72
2024/01/04 02:26:07;;;;;;;11.32;6.78;;;;;;;7.71;100.00;92396.03;5075342;28;20117;-72
2024/01/04 02:28:34;;;;;;;7.30;4.40;;;;;;;7.70;100.00;92392.72;5078058;28;20044;-72
2024/01/04 02:31:01;;;;;;;9.43;4.57;;;;;;;7.75;100.00;92382.63;5069545;28;20375;-72
2024/01/04 02:33:28;;;;;;;38.42;19.98;;;;;;;7.77;100.00;92379.84;5068228;28;20052;-72
2024/01/04 02:35:55;;;;;;;37.33;20.35;;;;;;;7.79;100.00;92382.19;5069516;28;20044;-72
2024/01/04 02:38:22;;;;;;;11.07;5.75;;;;;;;7.82;100.00;92397.13;5069146;28;20047;-72
2024/01/04 02:40:50;;;;;;;12.70;7.07;;;;;;;7.75;100.00;92376.72;5068066;28;20106;-72
2024/01/04 02:43:17;;;;;;;12.25;6.70;;;;;;;7.78;100.00;92376.28;5076880;28;20516;-72
2024/01/04 02:45:44;;;;;;;38.10;22.77;;;;;;;7.81;100.00;92363.09;5074504;28;20056;-72
2024/01/04 02:48:11;;;;;;;9.50;5.18;;;;;;;7.76;100.00;92368.06;5070724;28;21072;-72
2024/01/04 02:50:38;;;;;;;5.13;2.70;;;;;;;7.75;100.00;92369.06;5073884;28;20050;-72
2024/01/04 02:53:05;;;;;;;11.13;5.22;;;;;;;7.73;100.00;92376.16;5069416;28;20311;-72
2024/01/04 02:55:32;;;;;;;6.53;2.90;;;;;;;7.59;100.00;92366.06;5074110;28;20105;-72
2024/01/04 02:58:00;;;;;;;8.65;4.45;;;;;;;7.60;100.00;92366.84;5069397;28;20044;-72
2024/01/04 03:00:27;;;;;;;6.57;3.85;;;;;;;7.49;100.00;92355.53;5079591;28;20056;-72
2024/01/04 03:02:54;;;;;;;6.63;3.72;;;;;;;7.22;100.00;92320.81;5067715;28;20493;-72
2024/01/04 03:05:21;;;;;;;4.07;1.98;;;;;;;7.07;100.00;92316.03;5073552;28;20428;-72
2024/01/04 03:07:49;;;;;;;4.13;2.42;;;;;;;7.25;100.00;92344.34;5079247;28;20129;-72
2024/01/04 03:10:16;;;;;;;4.55;1.80;;;;;;;7.15;100.00;92339.72;5070037;28;20128;-72
2024/01/04 03:12:43;;;;;;;3.83;1.60;;;;;;;7.13;100.00;92339.16;5071487;28;20568;-72
2024/01/04 03:15:12;;;;;;;4.75;2.72;;;;;;;7.17;100.00;92341.09;5070203;28;20989;-72
2024/01/04 03:17:39;;;;;;;12.93;6.55;;;;;;;7.08;100.00;92337.22;5071836;28;20036;-72
2024/01/04 03:20:07;;;;;;;4.25;2.20;;;;;;;7.08;100.00;92343.13;5074600;28;20063;-72
2024/01/04 03:22:34;;;;;;;5.68;3.10;;;;;;;6.85;100.00;92307.19;5069601;28;20050;-72
2024/01/04 03:25:01;;;;;;;7.78;2.95;;;;;;;7.03;100.00;92340.41;5070271;28;20052;-72
2024/01/04 03:27:28;;;;;;;4.45;2.63;;;;;;;7.09;100.00;92336.25;5074474;28;20142;-72
2024/01/04 03:29:55;;;;;;;3.30;1.50;;;;;;;7.12;100.00;92340.16;5072301;28;20059;-72
2024/01/04 03:32:24;;;;;;;5.45;2.47;;;;;;;7.19;100.00;92326.31;5070700;28;20045;-75
2024/01/04 03:34:51;;;;;;;4.00;2.50;;;;;;;7.26;100.00;92326.28;5071667;28;20374;-72
2024/01/04 03:37:18;;;;;;;5.57;3.28;;;;;;;7.38;100.00;92320.47;5065276;28;20055;-72
2024/01/04 03:39:45;;;;;;;3.67;2.03;;;;;;;7.40;100.00;92310.84;5074423;28;20044;-72
2024/01/04 03:42:12;;;;;;;7.53;3.05;;;;;;;7.41;100.00;92312.38;5069672;28;20056;-72
2024/01/04 03:44:39;;;;;;;3.53;1.88;;;;;;;7.41;100.00;92302.94;5073942;28;20060;-72
2024/01/04 03:47:06;;;;;;;3.95;2.15;;;;;;;7.43;100.00;92307.84;5075145;28;20049;-72
2024/01/04 03:49:34;;;;;;;3.55;1.73;;;;;;;7.52;100.00;92303.22;5071794;28;20051;-72
2024/01/04 03:52:02;;;;;;;3.17;1.70;;;;;;;7.60;100.00;92302.97;5078885;28;20055;-72
2024/01/04 03:54:29;;;;;;;7.65;2.50;;;;;;;7.62;100.00;92301.75;5072823;28;20048;-72
2024/01/04 03:56:56;;;;;;;6.38;3.90;;;;;;;7.62;100.00;92301.75;5066692;28;20041;-72
2024/01/04 03:59:23;;;;;;;5.03;2.50;;;;;;;7.65;100.00;92308.22;5067818;28;20053;-72
2024/01/04 04:01:50;;;;;;;6.57;3.15;;;;;;;7.26;100.00;92277.75;5067853;28;20059;-72
2024/01/04 04:04:17;;;;;;;3.45;1.70;;;;;;;7.54;100.00;92302.03;5072722;28;20131;-72
2024/01/04 04:06:45;;;;;;;2.70;1.45;;;;;;;7.64;100.00;92309.19;5073404;28;20056;-72
2024/01/04 04:09:12;;;;;;;8.38;3.90;;;;;;;7.58;100.00;92305.72;5070529;28;20525;-72
2024/01/04 04:11:40;;;;;;;6.53;2.50;;;;;;;7.60;100.00;92313.19;5073363;28;20049;-72
2024/01/04 04:14:09;;;;;;;7.60;3.78;;;;;;;7.56;100.00;92312.81;5070900;28;20048;-72
2024/01/04 04:16:40;;;;;;;8.40;4.53;;;;;;;7.65;100.00;92317.63;5074338;28;20049;-72
2024/01/04 04:19:07;;;;;;;9.55;4.82;;;;;;;7.61;100.00;92318.09;5072923;28;20048;-72
2024/01/04 04:21:34;;;;;;;8.07;4.30;;;;;;;7.46;100.00;92303.06;5071505;28;20067;-72
2024/01/04 04:24:03;;;;;;;8.18;3.97;;;;;;;7.42;100.00;92311.38;5075274;28;20055;-72
2024/01/04 04:26:31;;;;;;;8.50;4.15;;;;;;;7.37;100.00;92316.34;5067625;28;20143;-72
2024/01/04 04:28:58;;;;;;;8.73;4.13;;;;;;;7.30;100.00;92316.41;5069895;28;20045;-72
2024/01/04 04:31:25;;;;;;;6.78;3.53;;;;;;;7.03;100.00;92281.69;5067084;28;20127;-72
2024/01/04 04:33:52;;;;;;;7.03;3.58;;;;;;;7.26;100.00;92315.28;5070471;28;20044;-72
2024/01/04 04:36:18;;;;;;;6.88;3.67;;;;;;;7.28;100.00;92314.09;5071699;28;20044;-72
2024/01/04 04:38:45;;;;;;;7.78;3.67;;;;;;;7.08;100.00;92304.81;5072204;28;20143;-72
2024/01/04 04:41:14;;;;;;;3.08;1.30;;;;;;;7.21;100.00;92315.91;5072026;28;20056;-72
2024/01/04 04:43:41;;;;;;;5.18;1.90;;;;;;;7.13;100.00;92318.75;5075421;28;20134;-72
2024/01/04 04:46:10;;;;;;;4.40;1.20;;;;;;;7.07;100.00;92310.94;5069915;28;20049;-72
2024/01/04 04:48:37;;;;;;;2.10;1.17;;;;;;;7.22;100.00;92331.03;5068738;28;20045;-72
2024/01/04 04:51:05;;;;;;;2.40;1.33;;;;;;;7.26;100.00;92322.94;5073457;28;20497;-72
2024/01/04 04:53:32;;;;;;;3.65;1.60;;;;;;;7.26;100.00;92315.28;5072327;28;20040;-72
2024/01/04 04:55:59;;;;;;;3.70;1.77;;;;;;;7.33;100.00;92316.00;5075374;28;20049;-72
2024/01/04 04:58:27;;;;;;;3.92;1.10;;;;;;;7.35;100.00;92324.22;5068483;28;20055;-72
2024/01/04 05:00:56;;;;;;;2.88;1.30;;;;;;;7.24;100.00;92307.03;5078030;28;20489;-72
2024/01/04 05:03:24;;;;;;;2.97;1.27;;;;;;;7.36;100.00;92313.00;5070384;28;20057;-72
2024/01/04 05:06:06;;;;;;;2.33;1.00;;;;;;;7.33;100.00;92306.53;5075491;28;20143;-72
2024/01/04 05:08:33;;;;;;;4.57;1.85;;;;;;;7.40;100.00;92333.81;5079439;28;20493;-72
2024/01/04 05:11:00;;;;;;;2.45;1.13;;;;;;;7.40;100.00;92326.16;5075510;28;20040;-72
2024/01/04 05:13:28;;;;;;;3.10;1.50;;;;;;;7.47;100.00;92324.31;5073444;28;20497;-72
2024/01/04 05:15:55;;;;;;;2.10;1.20;;;;;;;7.42;100.00;92317.28;5070891;28;20058;-71
2024/01/04 05:18:22;;;;;;;2.90;1.30;;;;;;;7.34;100.00;92330.31;5068122;28;20060;-72
2024/01/04 05:20:49;;;;;;;2.40;1.25;;;;;;;7.31;100.00;92330.78;5075044;28;20044;-71
2024/01/04 05:23:17;;;;;;;3.17;1.17;;;;;;;7.34;100.00;92326.00;5072929;28;20052;-71
2024/01/04 05:25:45;;;;;;;3.17;1.35;;;;;;;7.35;100.00;92327.56;5073174;28;20053;-71
2024/01/04 05:28:12;;;;;;;3.40;1.67;;;;;;;7.35;100.00;92325.00;5075961;28;20049;-71
2024/01/04 05:30:40;;;;;;;4.40;1.55;;;;;;;7.41;100.00;92325.94;5077934;28;20417;-72
2024/01/04 05:33:08;;;;;;;3.30;1.35;;;;;;;7.29;100.00;92295.22;5070530;28;20051;-72
2024/01/04 05:35:34;;;;;;;3.05;1.30;;;;;;;7.39;100.00;92309.25;5076046;28;20055;-71
2024/01/04 05:38:01;;;;;;;2.25;1.33;;;;;;;7.35;100.00;92308.91;5074351;28;20044;-71
2024/01/04 05:40:28;;;;;;;2.55;1.58;;;;;;;7.40;100.00;92311.59;5069363;28;20044;-72
2024/01/04 05:42:57;;;;;;;4.07;1.45;;;;;;;7.39;100.00;92314.34;5072698;28;20049;-72
2024/01/04 05:45:24;;;;;;;3.65;1.42;;;;;;;7.44;100.00;92333.19;5073032;28;20087;-72
2024/01/04 05:47:52;;;;;;;2.47;1.30;;;;;;;7.50;100.00;92331.53;5075908;28;20122;-72
2024/01/04 05:50:19;;;;;;;3.58;1.63;;;;;;;7.44;100.00;92338.28;5075710;28;20052;-72
2024/01/04 05:52:46;;;;;;;2.50;1.50;;;;;;;7.45;100.00;92334.75;5077541;28;20080;-71
2024/01/04 05:55:14;;;;;;;5.22;1.63;;;;;;;7.44;100.00;92338.28;5074226;28;20059;-72
2024/01/04 05:57:41;;;;;;;5.78;1.85;;;;;;;7.41;100.00;92340.50;5074660;28;20419;-72
2024/01/04 06:00:09;;;;;;;4.85;1.75;;;;;;;7.42;100.00;92329.28;5075478;28;20682;-72
2024/01/04 06:02:36;;;;;;;4.88;2.00;;;;;;;7.45;100.00;92339.09;5078752;28;20053;-72
2024/01/04 06:05:05;;;;;;;6.22;2.40;;;;;;;7.53;100.00;92343.13;5075638;28;20066;-72
2024/01/04 06:07:32;;;;;;;6.95;1.55;;;;;;;7.53;100.00;92343.13;5076333;28;20490;-72
2024/01/04 06:09:59;;;;;;;2.60;1.50;;;;;;;7.57;100.00;92350.16;5077994;28;20055;-72
2024/01/04 06:12:26;;;;;;;6.13;1.90;;;;;;;7.58;100.00;92338.16;5070324;28;20059;-72
2024/01/04 06:14:53;;;;;;;5.25;1.95;;;;;;;7.70;100.00;92349.25;5071583;28;20040;-72
2024/01/04 06:17:20;;;;;;;5.15;1.45;;;;;;;7.70;100.00;92351.81;5073116;28;20044;-72
2024/01/04 06:19:47;;;;;;;6.85;1.40;;;;;;;7.72;100.00;92351.56;5073870;28;20439;-72
2024/01/04 06:22:15;;;;;;;2.45;1.40;;;;;;;7.81;100.00;92352.06;5073167;28;20140;-72
2024/01/04 06:24:43;;;;;;;3.22;1.27;;;;;;;7.79;100.00;92339.53;5073723;28;20084;-72
2024/01/04 06:27:10;;;;;;;3.35;1.20;;;;;;;7.97;100.00;92331.03;5076400;28;20413;-72
2024/01/04 06:29:36;;;;;;;3.80;1.27;;;;;;;8.02;100.00;92330.41;5073219;28;20046;-71
2024/01/04 06:32:04;;;;;;;4.10;1.40;;;;;;;8.01;100.00;92333.97;5072210;28;20615;-72
2024/01/04 06:34:31;;;;;;;6.30;1.65;;;;;;;7.87;100.00;92341.00;5069440;28;20044;-72
2024/01/04 06:36:58;;;;;;;4.38;1.77;;;;;;;8.18;100.00;92336.69;5072383;28;20490;-71
2024/01/04 06:39:28;;;;;;;2.80;1.30;;;;;;;8.04;100.00;92335.31;5073166;28;20044;-72
2024/01/04 06:41:55;;;;;;;4.65;1.48;;;;;;;8.24;100.00;92337.63;5071141;28;20052;-72
2024/01/04 06:44:22;;;;;;;3.03;1.05;;;;;;;8.09;100.00;92327.75;5073634;28;20497;-72
2024/01/04 06:46:49;;;;;;;2.75;1.20;;;;;;;7.97;100.00;92323.38;5075839;28;20040;-71
2024/01/04 06:49:16;;;;;;;1.92;0.90;;;;;;;8.27;100.00;92314.94;5071448;28;20044;-72
2024/01/04 06:51:43;;;;;;;3.65;1.15;;;;;;;8.19;100.00;92325.47;5069444;28;20045;-72
2024/01/04 06:54:10;;;;;;;2.22;1.00;;;;;;;8.40;100.00;92321.66;5072424;28;20052;-72
2024/01/04 06:56:38;;;;;;;3.97;1.27;;;;;;;8.55;100.00;92323.84;5067617;28;20044;-72
2024/01/04 06:59:05;;;;;;;3.20;1.50;;;;;;;8.64;99.97;92328.63;5066038;28;20055;-71
2024/01/04 07:01:32;;;;;;;3.03;1.58;;;;;;;8.73;99.27;92327.31;5067708;28;20052;-71
2024/01/04 07:03:59;;;;;;;5.47;3.05;;;;;;;8.59;99.44;92334.41;5071239;28;20048;-71
2024/01/04 07:06:26;;;;;;;6.72;2.70;;;;;;;8.80;100.00;92345.94;5073811;28;20509;-71
2024/01/04 07:08:53;;;;;;;4.80;1.85;;;;;;;9.02;98.82;92339.53;5072206;28;20051;-72
2024/01/04 07:11:20;;;;;;;4.18;1.38;;;;;;;9.05;97.82;92344.97;5069677;28;20055;-72
2024/01/04 07:13:48;;;;;;;3.60;0.98;;;;;;;8.91;97.05;92341.06;5074165;28;20050;-72
2024/01/04 07:16:15;;;;;;;2.35;1.20;;;;;;;9.18;96.53;92350.88;5076605;28;20052;-71
2024/01/04 07:31:50;;;;;;;2.85;1.38;;;;;;;10.03;90.63;92335.97;5111875;27;20848;-71
2024/01/04 07:34:17;;;;;;;3.40;1.20;;;;;;;9.99;91.54;92336.63;5109200;28;20060;-71
2024/01/04 07:36:44;;;;;;;14.63;2.53;;;;;;;9.91;91.21;92345.50;5112717;28;20446;-70
2024/01/04 07:39:11;;;;;;;13.27;6.28;;;;;;;9.86;91.89;92343.59;5107798;28;20052;-71
2024/01/04 07:41:38;;;;;;;22.92;7.65;;;;;;;9.81;92.32;92322.97;5111022;28;20053;-71
2024/01/04 07:44:05;;;;;;;12.75;5.43;;;;;;;9.84;90.14;92337.91;5106183;28;20128;-71
2024/01/04 07:46:32;;;;;;;10.48;3.85;;;;;;;9.89;91.90;92338.03;5107114;28;20054;-71
2024/01/04 07:49:00;;;;;;;7.75;2.47;;;;;;;9.86;91.85;92338.47;5106667;28;20052;-71
2024/01/04 07:51:28;;;;;;;6.78;1.98;;;;;;;9.94;91.65;92339.09;5109932;28;20155;-72
2024/01/04 07:53:54;;;;;;;9.18;2.90;;;;;;;9.95;91.92;92344.00;5109591;28;20048;-71
2024/01/04 07:56:21;;;;;;;15.23;10.32;;;;;;;10.07;91.57;92346.56;5105682;28;20058;-71
2024/01/04 07:58:48;;;;;;;11.43;9.13;;;;;;;10.12;91.53;92354.34;5105832;28;20424;-71
2024/01/04 08:01:15;;;;;;;12.40;6.13;;;;;;;10.17;90.36;92353.66;5117666;28;20052;-71
2024/01/04 08:03:42;;;;;;;9.50;4.10;;;;;;;10.19;91.12;92349.09;5108577;28;20058;-71
2024/01/04 08:06:11;;;;;;;11.45;4.45;;;;;;;10.20;90.49;92344.72;5105272;28;20389;-71
2024/01/04 08:08:38;;;;;;;12.18;4.15;;;;;;;10.15;91.19;92337.72;5108270;28;20048;-71
2024/01/04 08:11:04;;;;;;;10.18;2.65;;;;;;;9.92;91.14;92325.72;5107527;28;20048;-71
2024/01/04 08:13:32;;;;;;;8.15;2.30;;;;;;;9.92;92.16;92323.16;5105411;28;20047;-73
2024/01/04 08:16:00;;;;;;;3.92;1.80;;;;;;;9.76;92.21;92326.22;5116408;28;20100;-73
2024/01/04 08:18:27;;;;;;;4.53;1.85;;;;;;;9.77;92.46;92327.00;5106083;28;20051;-71
2024/01/04 08:20:54;;;;;;;4.25;1.92;;;;;;;9.67;93.86;92317.31;5104818;28;20054;-71
2024/01/04 08:23:23;;;;;;;6.40;2.83;;;;;;;9.66;93.01;92318.31;5105812;28;20176;-71
2024/01/04 08:25:50;;;;;;;3.35;2.10;;;;;;;9.69;93.46;92306.81;5111118;28;20042;-73
2024/01/04 08:28:17;;;;;;;5.38;2.35;;;;;;;9.77;92.92;92303.94;5107760;28;20412;-71
2024/01/04 08:30:43;;;;;;;4.32;2.05;;;;;;;9.51;93.39;92288.03;5107129;28;20052;-71
2024/01/04 08:33:10;;;;;;;3.88;1.63;;;;;;;9.35;93.78;92297.16;5102797;28;20072;-71
2024/01/04 08:35:37;;;;;;;2.72;1.33;;;;;;;9.57;93.41;92302.50;5094830;28;20390;-71
2024/01/04 08:38:04;;;;;;;2.80;1.00;;;;;;;9.71;92.72;92305.59;5100344;28;20048;-71
2024/01/04 08:40:36;;;;;;;2.72;1.00;;;;;;;9.51;92.94;92303.41;5093766;28;20507;-71
2024/01/04 08:43:03;;;;;;;3.05;1.60;;;;;;;9.44;94.03;92295.06;5092175;28;20055;-71
2024/01/04 08:45:30;;;;;;;5.90;1.30;;;;;;;9.49;93.70;92300.28;5097204;28;20043;-71
2024/01/04 08:47:58;;;;;;;3.58;1.27;;;;;;;9.46;93.12;92293.84;5092784;28;20066;-71
2024/01/04 08:50:25;;;;;;;3.60;1.17;;;;;;;9.65;93.35;92303.94;5096588;28;20553;-71
2024/01/04 08:52:52;;;;;;;4.97;1.42;;;;;;;9.59;92.65;92300.47;5090828;28;20603;-71
2024/01/04 08:55:20;;;;;;;3.33;1.48;;;;;;;9.70;94.17;92303.25;5094252;28;20036;-72
2024/01/04 08:57:48;;;;;;;3.78;1.15;;;;;;;9.92;92.90;92305.22;5092311;28;20040;-71
2024/01/04 09:00:16;;;;;;;4.68;1.58;;;;;;;9.95;92.12;92294.50;5093245;28;20048;-71
2024/01/04 09:02:45;;;;;;;4.00;1.25;;;;;;;9.94;91.73;92305.75;5103927;28;20079;-71
2024/01/04 09:05:12;;;;;;;3.38;1.85;;;;;;;10.33;90.32;92308.53;5090641;28;20080;-71
2024/01/04 09:07:39;;;;;;;2.67;1.38;;;;;;;10.22;89.56;92299.06;5098765;28;20493;-71
2024/01/04 09:10:07;;;;;;;2.53;1.58;;;;;;;10.24;90.86;92300.41;5091672;28;20138;-71
2024/01/04 09:12:34;;;;;;;3.10;1.50;;;;;;;10.21;90.67;92289.81;5089938;28;20154;-71
2024/01/04 09:15:05;;;;;;;3.65;1.30;;;;;;;10.26;90.03;92277.88;5093213;28;20050;-71
2024/01/04 09:17:32;;;;;;;4.38;1.55;;;;;;;10.19;90.14;92274.69;5089069;28;20125;-71
2024/01/04 09:19:59;;;;;;;3.58;1.45;;;;;;;10.15;89.70;92276.13;5093578;28;20067;-71
2024/01/04 09:22:26;;;;;;;3.72;1.95;;;;;;;10.23;90.08;92280.88;5092873;28;20567;-71
2024/01/04 09:24:55;;;;;;;5.03;1.70;;;;;;;10.25;90.86;92280.66;5099122;28;20055;-71
2024/01/04 09:27:23;;;;;;;5.60;1.80;;;;;;;10.27;90.23;92282.00;5090640;28;20134;-71
2024/01/04 09:29:50;;;;;;;2.50;1.55;;;;;;;10.33;90.41;92272.59;5089561;28;20113;-71
2024/01/04 09:32:19;;;;;;;4.43;1.80;;;;;;;10.38;90.66;92264.97;5090487;28;20052;-71
2024/01/04 09:34:46;;;;;;;4.30;1.70;;;;;;;10.18;90.66;92241.53;5092766;28;20048;-71
2024/01/04 09:37:13;;;;;;;3.05;1.58;;;;;;;10.50;91.23;92261.56;5091518;28;20658;-71
2024/01/04 09:39:40;;;;;;;5.85;1.70;;;;;;;10.68;90.16;92243.41;5092854;28;20058;-71
2024/01/04 09:42:09;;;;;;;4.90;2.00;;;;;;;11.00;90.68;92238.69;5090465;27;20044;-72
2024/01/04 09:44:36;;;;;;;7.28;2.83;;;;;;;11.21;90.62;92227.66;5092934;28;20055;-71
2024/01/04 09:47:08;;;;;;;8.40;5.35;;;;;;;11.79;85.54;92241.22;5090093;28;20512;-71
2024/01/04 09:49:37;;;;;;;4.30;2.40;;;;;;;11.77;84.30;92242.22;5091152;28;20048;-71
2024/01/04 09:52:05;;;;;;;19.35;10.73;;;;;;;12.11;84.47;92246.47;5090947;28;20145;-71
2024/01/04 09:54:33;;;;;;;17.15;9.82;;;;;;;12.34;82.71;92241.25;5093210;28;20044;-72
2024/01/04 09:57:00;;;;;;;7.53;2.75;;;;;;;12.43;80.61;92232.84;5091466;28;20040;-71
2024/01/04 09:59:29;;;;;;;15.27;6.90;;;;;;;12.46;80.87;92216.13;5090630;28;20051;-71
2024/01/04 10:02:00;;;;;;;11.02;5.63;;;;;;;12.56;79.69;92223.91;5090732;28;20398;-71
2024/01/04 10:04:27;;;;;;;6.65;2.58;;;;;;;12.41;78.70;92211.69;5089732;28;20084;-71
2024/01/04 10:06:59;;;;;;;22.85;11.77;;;;;;;12.26;79.76;92207.19;5091469;28;20073;-72
2024/01/04 10:09:35;;;;;;;8.68;4.15;;;;;;;12.11;79.54;92187.25;5091726;28;20053;-72
2024/01/04 10:12:05;;;;;;;;;;;;;;;11.92;81.05;92186.00;5093678;28;20052;-71
2024/01/04 10:14:32;;;;;;;13.25;2.28;;;;;;;11.68;81.27;92183.72;5094715;28;19924;-71
2024/01/04 10:17:00;;;;;;;7.95;2.33;;;;;;;11.52;82.27;92168.13;5088386;28;20054;-71
2024/01/04 10:19:28;;;;;;;6.53;1.95;;;;;;;11.41;83.06;92161.31;5096771;28;20050;-72
2024/01/04 10:22:01;;;;;;;9.48;3.13;;;;;;;11.33;84.15;92153.00;5091073;28;20051;-71
2024/01/04 10:24:30;;;;;;;3.67;1.60;;;;;;;11.16;85.35;92139.44;5090619;28;20527;-71
2024/01/04 10:26:57;;;;;;;5.45;1.55;;;;;;;11.21;85.01;92152.38;5090685;28;20048;-71
2024/01/04 10:29:25;;;;;;;5.30;1.60;;;;;;;11.18;85.61;92143.34;5089365;28;20047;-71
2024/01/04 10:31:59;;;;;;;4.28;1.40;;;;;;;11.04;85.38;92135.22;5083276;28;20147;-71
2024/01/04 10:34:27;;;;;;;3.28;1.25;;;;;;;11.03;86.04;92133.66;5090622;28;20048;-71
2024/01/04 10:36:55;;;;;;;3.78;1.13;;;;;;;11.09;85.96;92135.28;5095763;28;20056;-71
2024/01/04 10:39:23;;;;;;;4.88;1.30;;;;;;;11.05;85.87;92135.97;5090420;28;20051;-71
2024/01/04 10:41:59;;;;;;;5.78;1.30;;;;;;;11.08;85.94;92138.84;5095213;28;20062;-71
2024/01/04 10:44:26;;;;;;;2.97;1.10;;;;;;;11.03;86.35;92136.22;5088375;28;20692;-71
2024/01/04 10:46:57;;;;;;;3.03;1.38;;;;;;;11.08;86.40;92131.13;5092151;28;20040;-71
2024/01/04 10:49:25;;;;;;;5.90;2.00;;;;;;;11.17;85.94;92118.66;5090151;28;20052;-72
2024/01/04 10:51:53;;;;;;;5.13;1.50;;;;;;;11.39;85.88;92122.22;5089623;28;20050;-71
2024/01/04 10:54:21;;;;;;;5.85;2.33;;;;;;;11.56;86.54;92115.19;5089734;28;20070;-72
2024/01/04 10:56:50;;;;;;;4.97;2.20;;;;;;;11.76;85.15;92101.75;5090767;28;20189;-71
2024/01/04 10:59:18;;;;;;;5.15;2.58;;;;;;;12.18;83.21;92109.84;5087638;28;20054;-71
2024/01/04 11:01:47;;;;;;;6.22;1.45;;;;;;;12.37;80.79;92104.28;5089308;28;20501;-71
2024/01/04 11:04:15;;;;;;;6.97;2.55;;;;;;;12.56;80.14;92097.69;5087215;28;20044;-72
2024/01/04 11:06:42;;;;;;;5.97;2.17;;;;;;;12.43;80.18;92086.06;5090006;28;20056;-72
2024/01/04 11:09:09;;;;;;;4.18;2.10;;;;;;;12.36;80.48;92082.13;5090359;28;20174;-72
2024/01/04 11:11:37;;;;;;;5.57;2.25;;;;;;;12.26;79.77;92081.03;5087574;28;20056;-72
2024/01/04 11:14:05;;;;;;;4.38;1.60;;;;;;;12.30;79.65;92081.31;5087674;28;20177;-72
2024/01/04 11:16:50;;;;;;;4.53;2.40;;;;;;;12.04;80.11;92065.72;5091508;28;20035;-71
2024/01/04 11:19:28;;;;;;;5.97;3.08;;;;;;;12.21;80.35;92075.84;5088269;28;20047;-71
2024/01/04 11:22:22;;;;;;;6.00;2.10;;;;;;;12.26;80.06;92059.66;5088684;28;20040;-72
2024/01/04 11:24:59;;;;;;;6.50;2.45;;;;;;;12.33;80.73;92067.97;5088247;28;20044;-71
2024/01/04 11:27:29;;;;;;;22.33;8.68;;;;;;;12.60;81.47;92067.09;5088886;28;20054;-71
2024/01/04 11:29:58;;;;;;;7.93;3.85;;;;;;;13.04;79.39;92070.34;5089137;28;20055;-71
2024/01/04 11:32:25;;;;;;;9.98;2.88;;;;;;;13.23;77.87;92061.13;5090874;28;20062;-72
2024/01/04 11:34:52;;;;;;;12.25;6.93;;;;;;;13.40;77.79;92054.19;5091529;28;20382;-72
2024/01/04 11:37:20;;;;;;;14.65;7.93;;;;;;;13.54;76.74;92054.50;5089386;28;20056;-72
2024/01/04 11:39:58;;;;;;;11.30;6.18;;;;;;;13.60;75.40;92038.00;5086225;28;20059;-72
2024/01/04 11:42:33;;;;;;;26.00;12.50;;;;;;;13.54;75.29;92036.44;5089313;28;20052;-72
2024/01/04 11:45:04;;;;;;;7.18;3.55;;;;;;;13.35;73.98;92042.84;5090625;28;20043;-72
2024/01/04 11:47:37;;;;;;;14.40;5.97;;;;;;;13.18;74.00;92026.81;5090968;28;20063;-71
2024/01/04 11:50:14;;;;;;;33.95;15.15;;;;;;;13.03;75.78;92024.97;5089138;28;20044;-71